Time;durP1;ratioP1;P1;durP2;ratioP2;P2;SDS_P1;SDS_P2;PMS_P1;PMS_P2;Temp;Humidity;BMP_temperature;BMP_pressure;BME280_temperature;BME280_humidity;BME280_pressure;Samples;Min_cycle;Max_cycle;Signal;HPM_P1;HPM_P2
2023/01/21 00:02:02;;;;;;;10.93;4.63;;;3.30;99.90;;;;;;5086603;28;20024;-48
2023/01/21 00:04:28;;;;;;;13.45;5.55;;;3.20;99.90;;;;;;5087902;28;20036;-48
2023/01/21 00:06:53;;;;;;;14.07;4.40;;;3.20;99.90;;;;;;5083245;28;20361;-44
2023/01/21 00:09:19;;;;;;;9.48;4.75;;;3.20;99.90;;;;;;5077899;28;20194;-53
2023/01/21 00:11:44;;;;;;;13.38;4.55;;;3.20;99.90;;;;;;5087654;28;20383;-45
2023/01/21 00:14:10;;;;;;;10.15;4.78;;;3.10;99.90;;;;;;5087596;28;20052;-48
2023/01/21 00:16:36;;;;;;;14.18;4.57;;;3.00;99.90;;;;;;5086370;28;20039;-45
2023/01/21 00:19:01;;;;;;;13.98;4.60;;;2.90;99.90;;;;;;5081232;28;20375;-44
2023/01/21 00:21:27;;;;;;;13.32;5.03;;;2.90;99.90;;;;;;5067273;28;20039;-46
2023/01/21 00:23:53;;;;;;;14.02;5.32;;;2.90;99.90;;;;;;5066925;28;20063;-46
2023/01/21 00:26:18;;;;;;;12.25;5.32;;;3.10;99.90;;;;;;5066947;28;20044;-44
2023/01/21 00:28:45;;;;;;;10.95;4.45;;;3.20;99.90;;;;;;5066548;28;20064;-47
2023/01/21 00:31:11;;;;;;;11.30;4.85;;;3.30;99.90;;;;;;5066943;28;20468;-52
2023/01/21 00:33:37;;;;;;;14.50;5.45;;;3.30;99.90;;;;;;5066891;28;20031;-44
2023/01/21 00:36:05;;;;;;;13.13;5.43;;;3.30;99.90;;;;;;5066939;28;20108;-46
2023/01/21 00:38:32;;;;;;;11.45;5.68;;;3.20;99.90;;;;;;5066755;28;20021;-51
2023/01/21 00:41:06;;;;;;;14.90;5.82;;;3.20;99.90;;;;;;5058180;28;20400;-44
2023/01/21 00:43:32;;;;;;;9.70;5.63;;;3.10;99.90;;;;;;5053515;28;20013;-50
2023/01/21 00:45:58;;;;;;;10.00;5.65;;;3.10;99.90;;;;;;5053655;28;20034;-49
2023/01/21 00:48:24;;;;;;;15.73;5.82;;;3.10;99.90;;;;;;5053576;28;20025;-46
2023/01/21 00:50:50;;;;;;;12.38;5.43;;;3.00;99.90;;;;;;5053496;28;20036;-44
2023/01/21 00:53:17;;;;;;;15.73;5.70;;;3.00;99.90;;;;;;5053419;28;20033;-47
2023/01/21 00:55:42;;;;;;;13.07;6.03;;;3.00;99.90;;;;;;5053319;28;20489;-50
2023/01/21 00:58:08;;;;;;;15.02;5.90;;;2.90;99.90;;;;;;5053423;28;20025;-45
2023/01/21 01:00:34;;;;;;;14.90;6.57;;;2.80;99.90;;;;;;5053538;28;20025;-49
2023/01/21 01:02:59;;;;;;;14.05;6.40;;;2.80;99.90;;;;;;5053275;28;20025;-54
2023/01/21 01:05:25;;;;;;;13.77;6.30;;;2.80;99.90;;;;;;5053265;28;20108;-44
2023/01/21 01:07:51;;;;;;;12.88;5.70;;;2.70;99.90;;;;;;5052907;28;20075;-47
2023/01/21 01:10:16;;;;;;;16.98;6.55;;;2.70;99.90;;;;;;5071173;28;20033;-49
2023/01/21 01:12:42;;;;;;;14.15;6.45;;;2.60;99.90;;;;;;5072983;28;20016;-45
2023/01/21 01:15:08;;;;;;;12.43;6.63;;;2.50;99.90;;;;;;5072907;28;20059;-55
2023/01/21 01:17:34;;;;;;;12.73;6.07;;;2.50;99.90;;;;;;5072923;28;20030;-53
2023/01/21 01:20:00;;;;;;;15.68;6.65;;;2.40;99.90;;;;;;5072818;28;20028;-49
2023/01/21 01:22:26;;;;;;;14.55;6.63;;;2.40;99.90;;;;;;5072819;28;20035;-46
2023/01/21 01:24:51;;;;;;;14.05;6.28;;;2.40;99.90;;;;;;5072852;28;20032;-50
2023/01/21 01:27:17;;;;;;;16.75;6.68;;;2.40;99.90;;;;;;5072644;28;20029;-46
2023/01/21 01:29:42;;;;;;;19.08;7.55;;;2.40;99.90;;;;;;5072310;28;20049;-45
2023/01/21 01:32:09;;;;;;;14.80;6.57;;;2.50;99.90;;;;;;5072531;28;20099;-47
2023/01/21 01:34:35;;;;;;;13.82;6.53;;;2.50;99.90;;;;;;5072666;28;20060;-49
2023/01/21 01:37:01;;;;;;;14.50;6.43;;;2.50;99.90;;;;;;5072349;28;20113;-50
2023/01/21 01:39:27;;;;;;;15.32;6.93;;;2.60;99.90;;;;;;5071629;28;20047;-50
2023/01/21 01:41:53;;;;;;;12.02;6.10;;;2.60;99.90;;;;;;5072700;28;20407;-54
2023/01/21 01:44:50;;;;;;;14.00;6.70;;;2.60;99.90;;;;;;5072101;28;20052;-55
2023/01/21 01:47:17;;;;;;;17.20;6.13;;;2.60;99.90;;;;;;5072143;28;20502;-46
2023/01/21 01:49:42;;;;;;;15.75;6.35;;;2.50;99.90;;;;;;5071359;28;20048;-48
2023/01/21 01:52:10;;;;;;;13.30;6.75;;;2.50;99.90;;;;;;5071396;28;20017;-49
2023/01/21 01:54:44;;;;;;;14.55;6.50;;;2.50;99.90;;;;;;5072172;28;20016;-47
2023/01/21 01:57:14;;;;;;;13.82;6.13;;;2.50;99.90;;;;;;5072241;28;20178;-48
2023/01/21 01:59:41;;;;;;;11.00;6.15;;;2.40;99.90;;;;;;5071816;28;20039;-53
2023/01/21 02:02:13;;;;;;;11.30;5.80;;;2.40;99.90;;;;;;5071987;28;20101;-55
2023/01/21 02:04:55;;;;;;;14.25;6.45;;;2.30;99.90;;;;;;5071835;28;20507;-48
2023/01/21 02:07:23;;;;;;;13.23;6.25;;;2.20;99.90;;;;;;5063742;28;20063;-56
2023/01/21 02:09:50;;;;;;;15.43;6.30;;;2.00;99.90;;;;;;5066248;28;20433;-47
2023/01/21 02:12:16;;;;;;;14.85;6.03;;;2.00;99.90;;;;;;5071892;28;20036;-48
2023/01/21 02:14:44;;;;;;;10.55;5.43;;;1.90;99.90;;;;;;5071857;28;20035;-47
2023/01/21 02:17:10;;;;;;;12.80;6.50;;;1.80;99.90;;;;;;5071662;28;20108;-44
2023/01/21 02:19:44;;;;;;;11.75;5.93;;;1.70;99.90;;;;;;5071976;28;20107;-44
2023/01/21 02:22:48;;;;;;;14.57;6.72;;;1.70;99.90;;;;;;5071537;28;20026;-46
2023/01/21 02:25:33;;;;;;;14.50;6.40;;;1.70;99.90;;;;;;5071802;28;20036;-47
2023/01/21 02:28:14;;;;;;;17.40;6.93;;;1.60;99.90;;;;;;5071378;28;20029;-46
2023/01/21 02:31:00;;;;;;;13.85;6.55;;;1.60;99.90;;;;;;5071462;28;20039;-50
2023/01/21 02:33:44;;;;;;;20.10;7.45;;;1.60;99.90;;;;;;5070216;28;20021;-47
2023/01/21 02:36:24;;;;;;;15.45;6.40;;;1.60;99.90;;;;;;5046112;28;20046;-48
2023/01/21 02:39:01;;;;;;;15.85;6.65;;;1.60;99.90;;;;;;5071342;28;20150;-48
2023/01/21 02:41:42;;;;;;;19.90;7.78;;;1.50;99.90;;;;;;5071363;28;20028;-45
2023/01/21 02:44:19;;;;;;;16.63;7.32;;;1.50;99.90;;;;;;5071100;28;20106;-45
2023/01/21 02:46:57;;;;;;;15.27;7.18;;;1.40;99.90;;;;;;5071312;28;20074;-49
2023/01/21 02:49:33;;;;;;;18.00;8.23;;;1.30;99.90;;;;;;5070912;28;20491;-47
2023/01/21 02:51:59;;;;;;;14.65;6.95;;;1.30;99.90;;;;;;5071159;28;20078;-45
2023/01/21 02:54:40;;;;;;;18.35;7.40;;;1.30;99.90;;;;;;5071116;28;20103;-51
2023/01/21 02:57:17;;;;;;;15.93;7.25;;;1.20;99.90;;;;;;5071334;28;20017;-49
2023/01/21 02:59:46;;;;;;;14.98;7.57;;;1.20;99.90;;;;;;5070695;28;20540;-46
2023/01/21 03:02:19;;;;;;;19.25;7.70;;;1.10;99.90;;;;;;5071038;28;20070;-51
2023/01/21 03:04:51;;;;;;;16.60;7.50;;;1.10;99.90;;;;;;5050744;28;20033;-49
2023/01/21 03:07:33;;;;;;;16.25;7.70;;;1.10;99.90;;;;;;5049636;28;20050;-45
2023/01/21 03:10:11;;;;;;;18.40;7.55;;;1.20;99.90;;;;;;5061011;28;20041;-47
2023/01/21 03:12:48;;;;;;;20.05;7.95;;;1.10;99.90;;;;;;5050635;28;20045;-51
2023/01/21 03:18:27;;;;;;;17.13;7.57;;;1.30;99.90;;;;;;5051023;28;20082;-45
2023/01/21 03:20:58;;;;;;;17.70;8.02;;;1.40;99.90;;;;;;5050881;28;20036;-46
2023/01/21 03:23:29;;;;;;;14.43;7.28;;;1.30;99.90;;;;;;5050521;28;20392;-46
2023/01/21 03:25:57;;;;;;;19.30;8.35;;;1.20;99.90;;;;;;5050799;28;20475;-50
2023/01/21 03:28:26;;;;;;;17.00;7.97;;;1.10;99.90;;;;;;5050208;28;20116;-46
2023/01/21 03:30:57;;;;;;;15.57;6.90;;;1.00;99.90;;;;;;5050752;28;20044;-47
2023/01/21 03:33:24;;;;;;;16.70;7.43;;;0.90;99.90;;;;;;5049443;28;20025;-46
2023/01/21 03:35:53;;;;;;;15.90;7.70;;;0.90;99.90;;;;;;5050528;28;20146;-49
2023/01/21 03:38:35;;;;;;;14.45;7.00;;;0.80;99.90;;;;;;5049680;28;20037;-50
2023/01/21 03:41:13;;;;;;;15.75;7.55;;;0.80;99.90;;;;;;5050538;28;20098;-47
2023/01/21 03:43:39;;;;;;;17.50;7.63;;;0.70;99.90;;;;;;5050477;28;20044;-45
2023/01/21 03:46:33;;;;;;;13.68;6.95;;;0.70;99.90;;;;;;5050671;28;20461;-45
2023/01/21 03:49:21;;;;;;;16.58;7.22;;;0.70;99.90;;;;;;5050582;28;20025;-48
2023/01/21 03:51:56;;;;;;;19.80;7.15;;;0.60;99.90;;;;;;5050865;28;20472;-47
2023/01/21 03:54:22;;;;;;;16.63;7.68;;;0.50;99.90;;;;;;5049580;28;20492;-56
2023/01/21 03:56:48;;;;;;;14.02;7.43;;;0.50;99.90;;;;;;5050519;28;20397;-48
2023/01/21 03:59:13;;;;;;;17.02;7.18;;;0.50;99.90;;;;;;5050375;28;20170;-48
2023/01/21 04:01:40;;;;;;;14.38;7.32;;;0.40;99.90;;;;;;5050501;28;20033;-51
2023/01/21 04:04:06;;;;;;;16.52;7.85;;;0.40;99.90;;;;;;5050497;28;20033;-48
2023/01/21 04:06:32;;;;;;;15.40;8.05;;;0.40;99.90;;;;;;5050339;28;20116;-45
2023/01/21 04:08:58;;;;;;;15.02;7.68;;;0.40;99.90;;;;;;5057695;28;20506;-45
2023/01/21 04:11:24;;;;;;;18.30;7.85;;;0.40;99.90;;;;;;5070548;28;20017;-51
2023/01/21 04:13:49;;;;;;;15.52;7.18;;;0.40;99.90;;;;;;5069970;28;20407;-47
2023/01/21 04:16:15;;;;;;;16.75;7.38;;;0.40;99.90;;;;;;5071233;28;20076;-48
2023/01/21 04:18:40;;;;;;;15.82;7.93;;;0.40;99.90;;;;;;5073943;28;20012;-50
2023/01/21 04:21:06;;;;;;;16.23;7.78;;;0.40;99.90;;;;;;5074068;28;20379;-50
2023/01/21 04:23:32;;;;;;;16.60;7.63;;;0.60;99.90;;;;;;5073809;28;20040;-53
2023/01/21 04:25:57;;;;;;;20.55;8.38;;;0.60;99.90;;;;;;5073942;28;20043;-45
2023/01/21 04:28:23;;;;;;;17.30;8.65;;;0.50;99.90;;;;;;5073471;28;20094;-51
2023/01/21 04:30:49;;;;;;;15.60;7.72;;;0.40;99.90;;;;;;5073942;28;20484;-51
2023/01/21 04:33:15;;;;;;;20.02;8.40;;;0.40;99.90;;;;;;5073904;28;20399;-54
2023/01/21 04:35:40;;;;;;;22.13;9.10;;;0.40;99.90;;;;;;5073623;28;20425;-47
2023/01/21 04:38:06;;;;;;;18.83;8.68;;;0.30;99.90;;;;;;5073699;28;20536;-51
2023/01/21 04:40:32;;;;;;;18.52;7.90;;;0.20;99.90;;;;;;5073566;28;20836;-47
2023/01/21 04:42:57;;;;;;;21.40;8.70;;;0.20;99.90;;;;;;5073825;28;20028;-49
2023/01/21 04:45:23;;;;;;;19.75;8.52;;;0.10;99.90;;;;;;5073833;28;20103;-48
2023/01/21 04:47:48;;;;;;;19.88;7.20;;;0.10;99.90;;;;;;5073527;28;20031;-46
2023/01/21 04:50:15;;;;;;;18.25;7.82;;;0.00;99.90;;;;;;5065727;28;20094;-47
2023/01/21 04:52:41;;;;;;;17.33;7.85;;;0.00;99.90;;;;;;5052673;28;20021;-47
2023/01/21 04:55:08;;;;;;;16.13;7.90;;;0.00;99.90;;;;;;5053110;28;20029;-45
2023/01/21 04:57:34;;;;;;;18.40;8.68;;;0.10;99.90;;;;;;5053466;28;20013;-54
2023/01/21 05:00:00;;;;;;;14.82;7.45;;;0.10;99.90;;;;;;5053392;28;20029;-44
2023/01/21 05:02:26;;;;;;;15.93;8.63;;;0.00;99.90;;;;;;5055928;28;20411;-51
2023/01/21 05:04:51;;;;;;;23.17;8.98;;;0.00;99.90;;;;;;5053203;28;20028;-46
2023/01/21 05:07:17;;;;;;;21.17;8.95;;;0.10;99.90;;;;;;5052840;28;20036;-49
2023/01/21 05:09:42;;;;;;;18.88;7.93;;;0.10;99.90;;;;;;5053082;28;20472;-45
2023/01/21 05:12:08;;;;;;;21.33;8.23;;;0.00;99.90;;;;;;5053330;28;20048;-46
2023/01/21 05:14:34;;;;;;;24.77;8.50;;;-0.10;99.90;;;;;;5052932;28;20025;-50
2023/01/21 05:17:00;;;;;;;24.15;8.23;;;-0.20;99.90;;;;;;5053069;28;20488;-44
2023/01/21 05:19:26;;;;;;;18.65;8.43;;;-0.30;99.90;;;;;;5052834;28;20021;-45
2023/01/21 05:21:51;;;;;;;15.90;8.30;;;-0.40;99.90;;;;;;5052867;28;20025;-48
2023/01/21 05:24:17;;;;;;;19.40;7.75;;;-0.50;99.90;;;;;;5052611;28;20029;-45
2023/01/21 05:26:43;;;;;;;19.25;8.52;;;-0.50;99.90;;;;;;5052762;28;20021;-50
2023/01/21 05:29:09;;;;;;;14.65;8.25;;;-0.60;99.90;;;;;;5052618;28;20053;-48
2023/01/21 05:31:35;;;;;;;16.73;8.68;;;-0.60;99.90;;;;;;5052580;28;20021;-46
2023/01/21 05:34:00;;;;;;;16.27;8.13;;;-0.60;99.90;;;;;;5052698;28;20421;-52
2023/01/21 05:36:26;;;;;;;19.90;8.10;;;-0.60;99.90;;;;;;5052416;28;20029;-49
2023/01/21 05:38:52;;;;;;;19.38;9.00;;;-0.60;99.90;;;;;;5052629;28;20025;-49
2023/01/21 05:41:17;;;;;;;23.77;8.77;;;-0.50;99.90;;;;;;5052404;28;20025;-47
2023/01/21 05:43:43;;;;;;;18.17;8.77;;;-0.40;99.90;;;;;;5052597;28;20025;-50
2023/01/21 05:46:08;;;;;;;20.38;9.23;;;-0.30;99.90;;;;;;5052634;28;20029;-51
2023/01/21 05:48:34;;;;;;;18.42;8.98;;;-0.30;99.90;;;;;;5052204;28;20033;-52
2023/01/21 05:51:00;;;;;;;20.08;8.75;;;-0.30;99.90;;;;;;5052377;28;20040;-49
2023/01/21 05:53:26;;;;;;;18.25;8.80;;;-0.40;99.90;;;;;;5052288;28;20017;-46
2023/01/21 05:55:53;;;;;;;20.15;8.65;;;-0.50;99.90;;;;;;5052401;28;20434;-51
2023/01/21 05:58:19;;;;;;;21.13;9.65;;;-0.50;99.90;;;;;;5052039;28;20028;-51
2023/01/21 06:00:47;;;;;;;22.02;8.15;;;-0.60;99.90;;;;;;5052150;28;20025;-52
2023/01/21 06:03:13;;;;;;;21.17;9.18;;;-0.80;99.90;;;;;;5052063;28;20498;-49
2023/01/21 06:05:40;;;;;;;17.90;8.07;;;-0.90;99.90;;;;;;5051980;28;20484;-45
2023/01/21 06:08:06;;;;;;;18.65;8.50;;;-0.90;99.90;;;;;;5052309;28;20035;-48
2023/01/21 06:10:32;;;;;;;19.27;8.77;;;-0.90;99.90;;;;;;5051600;28;20487;-50
2023/01/21 06:12:57;;;;;;;17.23;8.50;;;-0.90;99.90;;;;;;5059421;28;20035;-45
2023/01/21 06:15:24;;;;;;;21.25;8.82;;;-0.90;99.90;;;;;;5064049;28;20123;-49
2023/01/21 06:17:50;;;;;;;23.00;9.23;;;-0.90;99.90;;;;;;5051890;28;20021;-50
2023/01/21 06:20:16;;;;;;;23.52;9.55;;;-0.80;99.90;;;;;;5061444;28;20142;-51
2023/01/21 06:22:42;;;;;;;16.67;8.15;;;-0.80;99.90;;;;;;5063418;28;20029;-49
2023/01/21 06:25:08;;;;;;;21.00;9.18;;;-0.70;99.90;;;;;;5051697;28;20013;-47
2023/01/21 06:27:36;;;;;;;19.77;9.07;;;-0.70;99.90;;;;;;5051484;28;20091;-51
2023/01/21 06:30:02;;;;;;;20.80;9.02;;;-0.70;99.90;;;;;;5051053;28;20049;-47
2023/01/21 06:32:28;;;;;;;22.95;10.30;;;-0.60;99.90;;;;;;5051349;28;20028;-50
2023/01/21 06:34:53;;;;;;;20.83;9.10;;;-0.60;99.90;;;;;;5051117;28;20029;-47
2023/01/21 06:37:19;;;;;;;19.77;8.40;;;-0.60;99.90;;;;;;5051442;28;20372;-46
2023/01/21 06:39:45;;;;;;;16.52;8.27;;;-0.70;99.90;;;;;;5050742;28;20051;-45
2023/01/21 06:42:10;;;;;;;23.92;9.20;;;-0.70;99.90;;;;;;5051272;28;20067;-45
2023/01/21 06:44:36;;;;;;;18.77;8.15;;;-0.80;99.90;;;;;;5051369;28;20518;-48
2023/01/21 06:47:01;;;;;;;18.00;7.95;;;-0.90;99.90;;;;;;5051273;28;20021;-55
2023/01/21 06:49:27;;;;;;;17.98;8.25;;;-1.00;99.90;;;;;;5051085;28;20483;-49
2023/01/21 06:51:53;;;;;;;20.02;9.20;;;-1.00;99.90;;;;;;5051139;28;20526;-44
2023/01/21 06:54:18;;;;;;;20.20;9.10;;;-1.10;99.90;;;;;;5051334;28;20063;-56
2023/01/21 06:56:44;;;;;;;20.33;9.02;;;-1.10;99.90;;;;;;5059581;28;20013;-50
2023/01/21 06:59:10;;;;;;;19.35;8.88;;;-1.10;99.90;;;;;;5050891;28;20037;-50
2023/01/21 07:01:35;;;;;;;23.42;9.38;;;-1.10;99.90;;;;;;5056304;28;20024;-50
2023/01/21 07:04:02;;;;;;;19.58;9.52;;;-1.00;99.90;;;;;;5050620;28;20124;-45
2023/01/21 07:06:27;;;;;;;21.75;9.85;;;-1.00;99.90;;;;;;5082843;28;20056;-46
2023/01/21 07:08:53;;;;;;;40.05;16.98;;;-0.90;99.90;;;;;;5050609;28;20033;-49
2023/01/21 07:11:19;;;;;;;36.83;16.50;;;-0.80;99.90;;;;;;5050761;28;20108;-47
2023/01/21 07:13:44;;;;;;;31.98;14.38;;;-0.80;99.90;;;;;;5050245;28;20024;-45
2023/01/21 07:16:10;;;;;;;29.70;12.25;;;-0.80;99.90;;;;;;5050774;28;20029;-48
2023/01/21 07:18:35;;;;;;;24.08;11.02;;;-0.90;99.90;;;;;;5050645;28;20029;-50
2023/01/21 07:21:01;;;;;;;23.50;12.15;;;-0.90;99.90;;;;;;5082725;28;20357;-45
2023/01/21 07:23:28;;;;;;;28.70;12.13;;;-0.90;99.90;;;;;;5051022;28;20029;-45
2023/01/21 07:25:54;;;;;;;23.35;11.15;;;-0.90;99.90;;;;;;5049494;28;20087;-46
2023/01/21 07:28:20;;;;;;;24.00;11.45;;;-1.00;99.90;;;;;;5057018;28;20504;-45
2023/01/21 07:30:45;;;;;;;22.85;10.00;;;-1.00;99.90;;;;;;5050613;28;20613;-53
2023/01/21 07:33:11;;;;;;;23.42;10.13;;;-1.10;99.90;;;;;;5082748;28;20053;-51
2023/01/21 07:35:37;;;;;;;21.48;9.90;;;-1.10;99.90;;;;;;5056451;28;20621;-51
2023/01/21 07:38:03;;;;;;;19.45;10.82;;;-1.20;99.90;;;;;;5064416;28;20021;-47
2023/01/21 07:40:28;;;;;;;21.23;10.55;;;-1.20;99.90;;;;;;5065707;28;20045;-44
2023/01/21 07:42:55;;;;;;;17.42;8.73;;;-1.30;99.90;;;;;;5053415;28;20135;-50
2023/01/21 07:45:21;;;;;;;21.00;10.27;;;-1.30;99.90;;;;;;5050472;28;20025;-50
2023/01/21 07:47:47;;;;;;;22.17;9.95;;;-1.40;99.90;;;;;;5050286;28;20112;-47
2023/01/21 07:50:13;;;;;;;20.77;8.73;;;-1.30;99.90;;;;;;5050697;28;20082;-50
2023/01/21 07:52:39;;;;;;;20.30;10.23;;;-1.40;99.90;;;;;;5054497;28;20029;-44
2023/01/21 07:55:05;;;;;;;24.50;10.48;;;-1.30;99.90;;;;;;5052849;28;20383;-49
2023/01/21 07:57:31;;;;;;;25.65;12.63;;;-1.30;99.90;;;;;;5053874;28;20033;-45
2023/01/21 07:59:57;;;;;;;22.60;10.15;;;-1.30;99.90;;;;;;5054124;28;20021;-49
2023/01/21 08:02:22;;;;;;;25.50;10.88;;;-1.30;99.90;;;;;;5054124;28;20048;-49
2023/01/21 08:04:48;;;;;;;21.60;10.10;;;-1.20;99.90;;;;;;5054339;28;20029;-46
2023/01/21 08:07:14;;;;;;;23.20;11.00;;;-1.20;99.90;;;;;;5054042;28;20032;-46
2023/01/21 08:09:40;;;;;;;25.38;11.35;;;-1.20;99.90;;;;;;5053708;28;20041;-48
2023/01/21 08:12:07;;;;;;;26.60;10.82;;;-1.10;99.90;;;;;;5053805;28;20373;-48
2023/01/21 08:14:33;;;;;;;26.13;11.27;;;-1.00;99.90;;;;;;5040990;28;20377;-52
2023/01/21 08:16:59;;;;;;;28.20;11.02;;;-1.00;99.90;;;;;;5053720;28;20025;-49
2023/01/21 08:19:25;;;;;;;25.88;10.60;;;-0.90;99.90;;;;;;5053799;28;20072;-46
2023/01/21 08:21:51;;;;;;;24.33;10.23;;;-0.90;99.90;;;;;;5053688;28;20475;-53
2023/01/21 08:24:17;;;;;;;25.38;11.80;;;-0.90;99.90;;;;;;5053445;28;20086;-44
2023/01/21 08:26:43;;;;;;;24.15;9.98;;;-0.90;99.90;;;;;;5053612;28;20033;-44
2023/01/21 08:29:08;;;;;;;25.98;10.63;;;-0.80;99.90;;;;;;5053196;28;20148;-44
2023/01/21 08:31:34;;;;;;;25.13;11.02;;;-0.80;99.90;;;;;;5053547;28;20056;-45
2023/01/21 08:34:00;;;;;;;26.17;10.73;;;-0.70;99.90;;;;;;5052279;28;20021;-44
2023/01/21 08:36:26;;;;;;;24.13;10.38;;;-0.70;99.90;;;;;;5051368;28;20082;-44
2023/01/21 08:39:00;;;;;;;24.85;10.07;;;-0.60;99.90;;;;;;5051793;28;20047;-44
2023/01/21 08:41:26;;;;;;;21.45;9.95;;;-0.40;99.90;;;;;;5051615;28;20025;-47
2023/01/21 08:43:52;;;;;;;19.90;10.25;;;0.20;99.90;;;;;;5051624;28;20036;-44
2023/01/21 08:46:17;;;;;;;21.05;9.77;;;1.40;99.90;;;;;;5050873;28;20033;-44
2023/01/21 08:48:43;;;;;;;17.05;9.77;;;2.80;99.90;;;;;;5051978;28;20029;-44
2023/01/21 08:51:09;;;;;;;22.70;8.65;;;4.00;99.90;;;;;;5052826;28;20033;-45
2023/01/21 08:53:35;;;;;;;19.83;8.38;;;5.40;99.90;;;;;;5053151;28;20021;-45
2023/01/21 08:56:02;;;;;;;15.15;8.05;;;6.80;99.90;;;;;;5053157;28;20064;-45
2023/01/21 08:58:29;;;;;;;13.52;7.65;;;7.80;99.90;;;;;;5053017;28;20464;-45
2023/01/21 09:00:55;;;;;;;13.30;7.28;;;8.70;99.90;;;;;;5052809;28;20028;-45
2023/01/21 09:03:20;;;;;;;13.00;7.47;;;9.80;99.90;;;;;;5053173;28;20025;-44
2023/01/21 09:05:46;;;;;;;15.55;8.05;;;10.70;96.30;;;;;;5052966;28;20056;-47
2023/01/21 09:08:12;;;;;;;15.55;7.97;;;11.40;92.70;;;;;;5052870;28;20040;-45
2023/01/21 09:13:22;;;;;;;12.30;7.82;;;12.80;86.30;;;;;;5053214;28;20043;-47
2023/01/21 09:15:48;;;;;;;16.77;8.43;;;13.30;80.70;;;;;;5053064;28;20025;-45
2023/01/21 09:18:14;;;;;;;14.35;8.30;;;13.90;78.50;;;;;;5052971;28;20392;-47
2023/01/21 09:20:40;;;;;;;14.35;9.70;;;13.50;73.90;;;;;;5052753;28;20033;-46
2023/01/21 09:23:25;;;;;;;15.27;9.73;;;12.20;74.30;;;;;;5052653;28;20013;-45
2023/01/21 09:25:55;;;;;;;16.33;9.98;;;10.80;77.00;;;;;;5052394;28;20071;-45
2023/01/21 09:28:21;;;;;;;;;;;9.20;80.60;;;;;;5053188;28;20183;-45
2023/01/21 09:30:46;;;;;;;17.42;9.60;;;7.90;84.90;;;;;;5052504;28;19955;-57
2023/01/21 09:33:14;;;;;;;13.63;9.23;;;6.90;88.90;;;;;;5052870;28;20174;-53
2023/01/21 09:35:40;;;;;;;19.15;9.57;;;6.20;91.20;;;;;;5052716;28;20033;-49
2023/01/21 09:38:06;;;;;;;15.38;9.23;;;5.50;93.10;;;;;;5052712;28;20100;-48
2023/01/21 09:40:32;;;;;;;19.17;9.43;;;5.10;94.10;;;;;;5052470;28;20035;-47
2023/01/21 09:43:08;;;;;;;18.50;9.80;;;4.60;96.00;;;;;;5052344;28;20021;-47
2023/01/21 09:45:34;;;;;;;19.33;11.45;;;4.30;97.90;;;;;;5052350;28;20029;-48
2023/01/21 09:48:01;;;;;;;23.33;12.68;;;4.20;99.60;;;;;;5052132;28;20032;-53
2023/01/21 09:50:27;;;;;;;25.88;14.73;;;4.10;99.90;;;;;;5052198;28;20047;-49
2023/01/21 09:53:06;;;;;;;28.15;16.45;;;4.10;99.90;;;;;;5051962;28;20033;-48
2023/01/21 09:55:39;;;;;;;;;;;4.10;99.90;;;;;;5052481;28;20423;-48
2023/01/21 09:58:20;;;;;;;33.53;17.55;;;4.20;99.90;;;;;;5051989;28;19911;-48
2023/01/21 10:01:02;;;;;;;35.65;18.25;;;4.20;99.90;;;;;;5051895;28;20025;-45
2023/01/21 10:03:54;;;;;;;21.25;12.98;;;5.10;99.90;;;;;;5051712;28;20028;-48
2023/01/21 10:06:34;;;;;;;25.30;14.32;;;7.70;99.90;;;;;;5051854;28;20029;-51
2023/01/21 10:09:15;;;;;;;22.70;15.07;;;10.50;97.20;;;;;;5051569;28;20424;-49
2023/01/21 10:12:01;;;;;;;25.42;15.27;;;13.10;90.70;;;;;;5051699;28;20539;-48
2023/01/21 10:14:30;;;;;;;20.33;13.75;;;15.10;81.60;;;;;;5050796;28;20545;-50
2023/01/21 10:16:55;;;;;;;18.65;10.55;;;16.50;71.60;;;;;;5051480;28;20376;-47
2023/01/21 10:19:27;;;;;;;15.88;10.00;;;17.60;67.90;;;;;;5051433;28;20027;-47
2023/01/21 10:21:56;;;;;;;15.85;10.63;;;18.60;63.80;;;;;;5051500;28;20056;-50
2023/01/21 10:24:30;;;;;;;14.45;10.05;;;19.60;60.90;;;;;;5051581;28;20021;-47
2023/01/21 10:26:56;;;;;;;13.93;9.90;;;20.40;56.50;;;;;;5051659;28;20025;-48
2023/01/21 10:29:24;;;;;;;17.40;12.70;;;21.00;55.20;;;;;;5051067;28;20052;-53
2023/01/21 10:32:01;;;;;;;13.47;9.63;;;21.40;53.30;;;;;;5051438;28;20049;-45
2023/01/21 10:34:34;;;;;;;11.35;9.02;;;21.80;52.20;;;;;;5051137;28;20079;-51
2023/01/21 10:37:33;;;;;;;16.25;9.80;;;21.20;51.50;;;;;;5051190;28;20025;-47
2023/01/21 10:40:04;;;;;;;13.43;8.63;;;21.40;50.30;;;;;;5051323;28;20047;-48
2023/01/21 10:42:30;;;;;;;13.70;9.23;;;21.70;49.30;;;;;;5051163;28;20051;-49
2023/01/21 10:44:58;;;;;;;14.45;9.52;;;22.10;48.00;;;;;;5050967;28;20431;-49
2023/01/21 10:47:39;;;;;;;16.17;10.07;;;21.70;48.60;;;;;;5051361;28;20033;-46
2023/01/21 10:50:23;;;;;;;14.63;9.95;;;21.90;48.80;;;;;;5050765;28;20029;-53
2023/01/21 10:53:15;;;;;;;15.90;9.48;;;22.10;48.30;;;;;;5050914;28;20032;-51
2023/01/21 10:56:00;;;;;;;11.77;8.43;;;22.10;47.90;;;;;;5051033;28;20032;-47
2023/01/21 10:58:43;;;;;;;11.93;7.95;;;22.30;47.30;;;;;;5050727;28;20476;-54
2023/01/21 11:01:21;;;;;;;11.50;7.28;;;22.50;47.60;;;;;;5050914;28;20107;-54
2023/01/21 11:03:50;;;;;;;11.60;7.13;;;22.80;46.70;;;;;;5050646;28;20056;-51
2023/01/21 11:06:18;;;;;;;12.13;7.80;;;22.80;45.80;;;;;;5050850;28;20021;-46
2023/01/21 11:08:48;;;;;;;10.45;6.95;;;22.70;46.70;;;;;;5050506;28;20380;-48
2023/01/21 11:11:25;;;;;;;10.30;7.45;;;23.00;46.00;;;;;;5050853;28;20025;-46
2023/01/21 11:13:50;;;;;;;12.85;7.53;;;23.20;45.00;;;;;;5050557;28;20032;-49
2023/01/21 11:16:34;;;;;;;10.23;7.30;;;23.10;45.50;;;;;;5050540;28;20020;-48
2023/01/21 11:19:02;;;;;;;12.20;7.50;;;23.20;45.70;;;;;;5050529;28;20392;-46
2023/01/21 11:21:28;;;;;;;13.73;8.55;;;22.20;44.30;;;;;;5049812;28;20097;-51
2023/01/21 11:23:57;;;;;;;11.48;7.47;;;22.60;46.10;;;;;;5049536;28;20056;-48
2023/01/21 11:26:25;;;;;;;12.07;7.47;;;22.80;45.20;;;;;;5050401;28;20039;-46
2023/01/21 11:29:10;;;;;;;10.68;7.40;;;22.50;44.70;;;;;;5049946;28;20049;-53
2023/01/21 11:31:36;;;;;;;12.27;8.80;;;23.40;43.40;;;;;;5050386;28;20396;-53
2023/01/21 11:34:15;;;;;;;14.57;8.43;;;23.80;44.70;;;;;;5050358;28;20025;-51
2023/01/21 11:36:59;;;;;;;13.80;7.53;;;23.60;44.80;;;;;;5050245;28;20543;-52
2023/01/21 11:39:35;;;;;;;11.43;7.13;;;24.00;43.40;;;;;;5050363;28;20029;-47
2023/01/21 11:42:14;;;;;;;13.35;8.45;;;23.40;43.30;;;;;;5063365;28;20051;-45
2023/01/21 11:44:51;;;;;;;10.85;6.90;;;23.70;42.50;;;;;;5063727;28;20480;-56
2023/01/21 11:47:50;;;;;;;12.77;7.47;;;22.50;41.40;;;;;;5068064;28;20017;-45
2023/01/21 11:50:34;;;;;;;10.00;6.70;;;21.30;45.20;;;;;;5023946;28;20048;-47
2023/01/21 11:53:10;;;;;;;9.95;6.90;;;20.50;46.20;;;;;;5068372;28;20032;-49
2023/01/21 11:55:41;;;;;;;10.27;6.53;;;20.40;46.50;;;;;;5069595;28;20086;-49
2023/01/21 11:58:17;;;;;;;11.27;7.00;;;19.10;45.10;;;;;;5067645;28;20021;-44
2023/01/21 12:00:45;;;;;;;10.50;6.20;;;17.70;48.70;;;;;;5066362;28;20017;-52
2023/01/21 12:03:16;;;;;;;11.18;6.30;;;17.70;51.40;;;;;;5069031;28;20169;-44
2023/01/21 12:05:46;;;;;;;15.30;6.90;;;17.00;51.10;;;;;;5068855;28;20450;-51
2023/01/21 12:08:21;;;;;;;13.43;6.97;;;17.30;51.50;;;;;;5066762;28;20028;-45
2023/01/21 12:10:49;;;;;;;13.50;6.13;;;17.40;50.00;;;;;;5065870;28;20036;-45
2023/01/21 12:13:39;;;;;;;10.60;6.15;;;17.80;51.00;;;;;;5067946;28;20380;-46
2023/01/21 12:16:08;;;;;;;10.63;6.38;;;18.40;49.50;;;;;;5061750;28;20017;-44
2023/01/21 12:18:51;;;;;;;10.38;5.80;;;18.20;49.60;;;;;;5067250;28;20233;-45
2023/01/21 12:21:32;;;;;;;9.35;5.72;;;18.40;47.90;;;;;;5048165;28;20510;-45
2023/01/21 12:24:20;;;;;;;10.70;6.20;;;18.30;47.80;;;;;;5065426;28;20050;-49
2023/01/21 12:26:59;;;;;;;13.57;6.43;;;18.40;49.50;;;;;;5067325;28;20035;-53
2023/01/21 12:30:00;;;;;;;11.68;6.63;;;18.50;48.60;;;;;;5067250;28;20044;-47
2023/01/21 12:32:32;;;;;;;11.20;6.30;;;19.80;47.90;;;;;;5034412;28;20029;-49
2023/01/21 12:35:15;;;;;;;9.27;5.85;;;20.20;48.70;;;;;;5065937;28;20020;-52
2023/01/21 12:37:53;;;;;;;12.23;6.50;;;20.70;45.50;;;;;;5056487;28;20033;-49
2023/01/21 12:40:32;;;;;;;9.90;6.18;;;19.60;45.10;;;;;;5064180;28;20029;-49
2023/01/21 12:43:15;;;;;;;11.43;6.07;;;19.20;47.00;;;;;;5053067;28;20025;-48
2023/01/21 12:45:47;;;;;;;10.52;5.82;;;19.90;46.40;;;;;;5053271;28;20032;-49
2023/01/21 12:48:31;;;;;;;11.15;5.95;;;20.70;46.50;;;;;;5055548;28;20039;-52
2023/01/21 12:51:28;;;;;;;10.35;6.07;;;21.80;44.00;;;;;;5060273;28;20053;-46
2023/01/21 12:54:16;;;;;;;8.93;5.38;;;20.60;43.50;;;;;;5024031;28;20061;-48
2023/01/21 12:57:07;;;;;;;9.45;5.88;;;20.30;46.50;;;;;;5085303;28;20143;-50
2023/01/21 12:59:41;;;;;;;8.07;5.47;;;18.70;43.10;;;;;;5052858;28;20434;-48
2023/01/21 13:02:24;;;;;;;12.85;6.53;;;19.50;44.80;;;;;;5052945;28;20704;-49